<?xml version="1.0" encoding="UTF-8" standalone="no" ?>
<gpx xmlns="http://www.topografix.com/GPX/1/1" xmlns:xsi="http://www.w3.org/2001/XMLSchema-instance" xsi:schemaLocation="http://www.topografix.com/GPX/1/1 http://www.topografix.com/GPX/1/1/gpx.xsd" version="1.1" creator="VisuGPX - https://www.visugpx.com">
  <metadata>
    <name>Vers l'A89</name>
  </metadata>
  <trk>
    <name><![CDATA[Tracé 28 nov. 2020 14:12:32]]></name>
    <trkseg>
      <trkpt lat="45.83349" lon="4.70892">
        <ele>306.17253</ele>
        <time>2020-11-28T13:12:32.000Z</time>
      </trkpt>
      <trkpt lat="45.83346" lon="4.70762">
        <ele>308.47916</ele>
        <time>2020-11-28T13:14:13.000Z</time>
      </trkpt>
      <trkpt lat="45.83352" lon="4.70676">
        <ele>307.7082</ele>
        <time>2020-11-28T13:15:15.000Z</time>
      </trkpt>
      <trkpt lat="45.83343" lon="4.70585">
        <ele>306.65229</ele>
        <time>2020-11-28T13:16:15.000Z</time>
      </trkpt>
      <trkpt lat="45.83314" lon="4.70441">
        <ele>307.64576</ele>
        <time>2020-11-28T13:17:14.000Z</time>
      </trkpt>
      <trkpt lat="45.83332" lon="4.7039">
        <ele>305.13534</ele>
        <time>2020-11-28T13:18:14.000Z</time>
      </trkpt>
      <trkpt lat="45.83345" lon="4.70249">
        <ele>304.17973</ele>
        <time>2020-11-28T13:19:14.000Z</time>
      </trkpt>
      <trkpt lat="45.83387" lon="4.70135">
        <ele>303.51088</ele>
        <time>2020-11-28T13:20:15.000Z</time>
      </trkpt>
      <trkpt lat="45.83406" lon="4.70063">
        <ele>300.7854</ele>
        <time>2020-11-28T13:21:15.000Z</time>
      </trkpt>
      <trkpt lat="45.83402" lon="4.69933">
        <ele>297.98052</ele>
        <time>2020-11-28T13:22:13.000Z</time>
      </trkpt>
      <trkpt lat="45.83385" lon="4.69809">
        <ele>296.76619</ele>
        <time>2020-11-28T13:23:15.000Z</time>
      </trkpt>
      <trkpt lat="45.83361" lon="4.69708">
        <ele>296.24346</ele>
        <time>2020-11-28T13:24:13.000Z</time>
      </trkpt>
      <trkpt lat="45.83337" lon="4.69559">
        <ele>296.64085</ele>
        <time>2020-11-28T13:25:14.000Z</time>
      </trkpt>
      <trkpt lat="45.83341" lon="4.69524">
        <ele>296.29599</ele>
        <time>2020-11-28T13:26:13.000Z</time>
      </trkpt>
      <trkpt lat="45.83369" lon="4.69432">
        <ele>294.95196</ele>
        <time>2020-11-28T13:27:16.000Z</time>
      </trkpt>
      <trkpt lat="45.83358" lon="4.6925">
        <ele>298.55776</ele>
        <time>2020-11-28T13:28:14.000Z</time>
      </trkpt>
      <trkpt lat="45.83362" lon="4.69132">
        <ele>296.08611</ele>
        <time>2020-11-28T13:29:14.000Z</time>
      </trkpt>
      <trkpt lat="45.83372" lon="4.69068">
        <ele>292.46467</ele>
        <time>2020-11-28T13:30:13.000Z</time>
      </trkpt>
      <trkpt lat="45.83426" lon="4.68955">
        <ele>281.29042</ele>
        <time>2020-11-28T13:31:14.000Z</time>
      </trkpt>
      <trkpt lat="45.83416" lon="4.68895">
        <ele>274.43868</ele>
        <time>2020-11-28T13:32:14.000Z</time>
      </trkpt>
      <trkpt lat="45.83375" lon="4.6874">
        <ele>275.53132</ele>
        <time>2020-11-28T13:33:13.000Z</time>
      </trkpt>
      <trkpt lat="45.83333" lon="4.68651">
        <ele>280.06795</ele>
        <time>2020-11-28T13:34:14.000Z</time>
      </trkpt>
      <trkpt lat="45.83321" lon="4.68541">
        <ele>280.54616</ele>
        <time>2020-11-28T13:35:13.000Z</time>
      </trkpt>
      <trkpt lat="45.83383" lon="4.6853">
        <ele>279.30525</ele>
        <time>2020-11-28T13:36:13.000Z</time>
      </trkpt>
      <trkpt lat="45.83477" lon="4.68477">
        <ele>274.1075</ele>
        <time>2020-11-28T13:37:13.000Z</time>
      </trkpt>
      <trkpt lat="45.83518" lon="4.68445">
        <ele>272.61398</ele>
        <time>2020-11-28T13:38:13.000Z</time>
      </trkpt>
      <trkpt lat="45.83576" lon="4.68399">
        <ele>270.49895</ele>
        <time>2020-11-28T13:39:14.000Z</time>
      </trkpt>
      <trkpt lat="45.83589" lon="4.68301">
        <ele>271.61483</ele>
        <time>2020-11-28T13:40:13.000Z</time>
      </trkpt>
      <trkpt lat="45.83653" lon="4.68383">
        <ele>264.4282</ele>
        <time>2020-11-28T13:41:13.000Z</time>
      </trkpt>
      <trkpt lat="45.83684" lon="4.6845">
        <ele>270.74544</ele>
        <time>2020-11-28T13:42:14.000Z</time>
      </trkpt>
      <trkpt lat="45.83692" lon="4.68439">
        <ele>270.49344</ele>
        <time>2020-11-28T13:43:13.000Z</time>
      </trkpt>
      <trkpt lat="45.83637" lon="4.68367">
        <ele>265.61409</ele>
        <time>2020-11-28T13:44:13.000Z</time>
      </trkpt>
      <trkpt lat="45.83597" lon="4.68284">
        <ele>271.08036</ele>
        <time>2020-11-28T13:45:13.000Z</time>
      </trkpt>
      <trkpt lat="45.83597" lon="4.68284">
        <ele>271.08036</ele>
        <time>2020-11-28T13:45:13.000Z</time>
      </trkpt>
      <trkpt lat="45.8359" lon="4.6829">
        <ele>271.45508</ele>
        <time>2020-11-28T13:46:14.000Z</time>
      </trkpt>
      <trkpt lat="45.83571" lon="4.68423">
        <ele>272.70947</ele>
        <time>2020-11-28T13:47:13.000Z</time>
      </trkpt>
      <trkpt lat="45.83493" lon="4.68474">
        <ele>274.527</ele>
        <time>2020-11-28T13:48:14.000Z</time>
      </trkpt>
      <trkpt lat="45.8342" lon="4.68498">
        <ele>275.76193</ele>
        <time>2020-11-28T13:49:14.000Z</time>
      </trkpt>
      <trkpt lat="45.83346" lon="4.68526">
        <ele>279.03108</ele>
        <time>2020-11-28T13:50:14.000Z</time>
      </trkpt>
      <trkpt lat="45.83347" lon="4.68655">
        <ele>279.81597</ele>
        <time>2020-11-28T13:51:35.000Z</time>
      </trkpt>
      <trkpt lat="45.8336" lon="4.6873">
        <ele>275.87097</ele>
        <time>2020-11-28T13:52:14.000Z</time>
      </trkpt>
      <trkpt lat="45.83396" lon="4.688">
        <ele>275.49199</ele>
        <time>2020-11-28T13:53:15.000Z</time>
      </trkpt>
      <trkpt lat="45.83421" lon="4.68902">
        <ele>275.08991</ele>
        <time>2020-11-28T13:54:14.000Z</time>
      </trkpt>
      <trkpt lat="45.83413" lon="4.68936">
        <ele>279.64444</ele>
        <time>2020-11-28T13:55:15.000Z</time>
      </trkpt>
      <trkpt lat="45.83386" lon="4.69038">
        <ele>290.08603</ele>
        <time>2020-11-28T13:56:14.000Z</time>
      </trkpt>
      <trkpt lat="45.83372" lon="4.69106">
        <ele>294.68325</ele>
        <time>2020-11-28T13:57:13.000Z</time>
      </trkpt>
      <trkpt lat="45.83362" lon="4.69229">
        <ele>298.30912</ele>
        <time>2020-11-28T13:58:14.000Z</time>
      </trkpt>
      <trkpt lat="45.83353" lon="4.69307">
        <ele>298.6816</ele>
        <time>2020-11-28T13:59:14.000Z</time>
      </trkpt>
      <trkpt lat="45.83342" lon="4.69427">
        <ele>297.22723</ele>
        <time>2020-11-28T14:00:15.000Z</time>
      </trkpt>
      <trkpt lat="45.83344" lon="4.69579">
        <ele>295.99896</ele>
        <time>2020-11-28T14:01:15.000Z</time>
      </trkpt>
      <trkpt lat="45.83359" lon="4.69672">
        <ele>295.89741</ele>
        <time>2020-11-28T14:02:14.000Z</time>
      </trkpt>
      <trkpt lat="45.83388" lon="4.69763">
        <ele>295.35376</ele>
        <time>2020-11-28T14:03:13.000Z</time>
      </trkpt>
      <trkpt lat="45.83382" lon="4.69853">
        <ele>298.05041</ele>
        <time>2020-11-28T14:04:13.000Z</time>
      </trkpt>
      <trkpt lat="45.83402" lon="4.69989">
        <ele>298.97214</ele>
        <time>2020-11-28T14:05:14.000Z</time>
      </trkpt>
      <trkpt lat="45.83415" lon="4.69959">
        <ele>296.79008</ele>
        <time>2020-11-28T14:06:16.000Z</time>
      </trkpt>
      <trkpt lat="45.83397" lon="4.70065">
        <ele>301.39016</ele>
        <time>2020-11-28T14:07:14.000Z</time>
      </trkpt>
      <trkpt lat="45.83366" lon="4.7018">
        <ele>303.91679</ele>
        <time>2020-11-28T14:08:14.000Z</time>
      </trkpt>
      <trkpt lat="45.83326" lon="4.70281">
        <ele>305.07404</ele>
        <time>2020-11-28T14:09:14.000Z</time>
      </trkpt>
      <trkpt lat="45.83337" lon="4.7042">
        <ele>305.24328</ele>
        <time>2020-11-28T14:10:13.000Z</time>
      </trkpt>
      <trkpt lat="45.83341" lon="4.70524">
        <ele>306.26164</ele>
        <time>2020-11-28T14:11:14.000Z</time>
      </trkpt>
      <trkpt lat="45.83339" lon="4.7064">
        <ele>307.39441</ele>
        <time>2020-11-28T14:12:13.000Z</time>
      </trkpt>
      <trkpt lat="45.83345" lon="4.70753">
        <ele>308.60306</ele>
        <time>2020-11-28T14:13:14.000Z</time>
      </trkpt>
      <trkpt lat="45.83335" lon="4.70903">
        <ele>306.27162</ele>
        <time>2020-11-28T14:14:13.000Z</time>
      </trkpt>
    </trkseg>
  </trk>
</gpx>